createdAt,value
2022-08-03T00:01:49.183Z,63.47
2022-08-03T00:04:16.905Z,63.44
2022-08-03T00:06:44.579Z,63.01
2022-08-03T00:09:12.590Z,63.26
2022-08-03T00:11:40.195Z,62.82
2022-08-03T00:14:09.070Z,63.18
2022-08-03T00:16:36.713Z,63.31
2022-08-03T00:19:04.645Z,63.45
2022-08-03T00:21:32.086Z,63.47
2022-08-03T00:24:00.331Z,63.84
2022-08-03T00:26:27.740Z,63.47
2022-08-03T00:28:55.324Z,63.19
2022-08-03T00:31:32.217Z,62.21
2022-08-03T00:34:10.310Z,62.00
2022-08-03T00:36:40.297Z,62.13
2022-08-03T00:39:07.733Z,61.90
2022-08-03T00:41:35.193Z,62.07
2022-08-03T00:44:02.648Z,62.02
2022-08-03T00:46:30.065Z,61.46
2022-08-03T00:48:57.628Z,61.71
2022-08-03T00:51:25.759Z,61.62
2022-08-03T00:53:53.234Z,61.57
2022-08-03T00:56:20.773Z,61.81
2022-08-03T00:58:48.317Z,61.03
2022-08-03T01:01:15.867Z,60.68
2022-08-03T01:03:45.280Z,60.20
2022-08-03T01:06:41.282Z,62.14
2022-08-03T01:09:21.130Z,62.13
2022-08-03T01:12:00.643Z,62.31
2022-08-03T01:14:49.423Z,62.80
2022-08-03T01:17:37.217Z,61.61
2022-08-03T01:20:09.769Z,60.87
2022-08-03T01:22:58.661Z,61.45
2022-08-03T01:25:54.731Z,59.26
2022-08-03T01:28:49.425Z,59.43
2022-08-03T01:31:22.808Z,60.28
2022-08-03T01:33:58.151Z,60.11
2022-08-03T01:36:34.181Z,59.82
2022-08-03T01:39:09.679Z,60.35
2022-08-03T01:41:44.800Z,60.07
2022-08-03T01:44:30.155Z,58.57
2022-08-03T01:47:00.803Z,59.11
2022-08-03T01:49:30.682Z,58.40
2022-08-03T01:52:04.858Z,58.72
2022-08-03T01:54:38.417Z,59.62
2022-08-03T01:57:07.400Z,58.09
2022-08-03T01:59:37.123Z,58.59
2022-08-03T02:02:15.485Z,58.27
2022-08-03T02:04:57.914Z,57.53
2022-08-03T02:07:27.265Z,56.97
2022-08-03T02:09:56.183Z,57.30
2022-08-03T02:12:29.020Z,57.80
2022-08-03T02:15:18.313Z,55.93
2022-08-03T02:17:47.988Z,56.65
2022-08-03T02:20:16.593Z,56.69
2022-08-03T02:22:45.743Z,57.13
2022-08-03T02:25:14.967Z,56.39
2022-08-03T02:27:55.589Z,57.02
2022-08-03T02:30:30.556Z,55.40
2022-08-03T02:32:59.770Z,53.92
2022-08-03T02:35:29.981Z,53.21
2022-08-03T02:38:02.784Z,53.67
2022-08-03T02:40:31.714Z,53.34
2022-08-03T02:43:15.876Z,53.52
2022-08-03T02:45:46.246Z,52.68
2022-08-03T02:48:18.194Z,52.65
2022-08-03T02:50:47.870Z,51.29
2022-08-03T02:53:18.042Z,52.39
2022-08-03T02:55:48.078Z,50.70
2022-08-03T02:58:18.971Z,46.66
2022-08-03T03:00:47.484Z,44.93
2022-08-03T03:03:16.173Z,42.29
2022-08-03T03:05:52.939Z,40.38
2022-08-03T03:08:28.608Z,37.14
2022-08-03T03:11:00.059Z,35.61
2022-08-03T03:13:32.701Z,34.87
2022-08-03T03:16:06.426Z,34.49
2022-08-03T03:18:35.394Z,33.08
2022-08-03T03:21:04.394Z,31.55
2022-08-03T03:23:35.917Z,30.59
2022-08-03T03:26:04.439Z,30.34
2022-08-03T03:28:33.239Z,29.43
2022-08-03T03:31:01.321Z,28.17
2022-08-03T03:33:28.878Z,27.10
2022-08-03T03:35:57.977Z,27.11
2022-08-03T03:38:25.577Z,26.28
2022-08-03T03:40:53.205Z,25.96
2022-08-03T03:43:20.780Z,25.53
2022-08-03T03:45:48.495Z,24.59
2022-08-03T03:48:16.606Z,24.38
2022-08-03T03:50:44.573Z,23.64
2022-08-03T03:53:13.979Z,23.52
2022-08-03T03:55:59.317Z,22.28
2022-08-03T03:58:32.234Z,22.18
2022-08-03T04:01:00.769Z,21.53
2022-08-03T04:03:28.787Z,21.48
2022-08-03T04:06:15.570Z,20.64
2022-08-03T04:09:01.546Z,20.85
2022-08-03T04:11:48.042Z,20.61
2022-08-03T04:14:21.162Z,19.53
2022-08-03T04:16:58.294Z,19.82
2022-08-03T04:19:32.785Z,18.83
2022-08-03T04:22:03.854Z,18.34
2022-08-03T04:24:35.587Z,18.37
2022-08-03T04:27:07.085Z,18.50
2022-08-03T04:29:38.512Z,17.95
2022-08-03T04:32:12.842Z,16.93
2022-08-03T04:34:41.082Z,16.58
2022-08-03T04:37:15.216Z,16.76
2022-08-03T04:39:44.872Z,16.27
2022-08-03T04:42:14.396Z,16.15
2022-08-03T04:44:45.549Z,16.47
2022-08-03T04:47:13.013Z,15.70
2022-08-03T04:49:40.993Z,15.97
2022-08-03T04:52:10.391Z,15.72
2022-08-03T04:54:50.295Z,15.48
2022-08-03T04:57:23.045Z,15.25
2022-08-03T05:00:01.362Z,15.25
2022-08-03T05:02:33.805Z,14.94
2022-08-03T05:05:01.363Z,14.63
2022-08-03T05:07:35.459Z,14.95
2022-08-03T05:10:14.760Z,14.71
2022-08-03T05:12:45.863Z,14.26
2022-08-03T05:15:13.527Z,14.46
2022-08-03T05:17:41.086Z,14.37
2022-08-03T05:20:09.129Z,14.12
2022-08-03T05:22:36.624Z,14.44
2022-08-03T05:25:04.405Z,14.19
2022-08-03T05:27:31.910Z,13.91
2022-08-03T05:30:30.360Z,13.94
2022-08-03T05:32:46.865Z,14.51
2022-08-03T05:35:57.301Z,14.27
2022-08-03T05:38:03.689Z,14.23
2022-08-03T05:40:31.440Z,14.10
2022-08-03T05:42:59.323Z,14.15
2022-08-03T05:45:28.528Z,14.05
2022-08-03T05:47:56.317Z,13.61
2022-08-03T05:50:24.057Z,13.04
2022-08-03T05:52:51.479Z,13.37
2022-08-03T05:55:19.326Z,13.48
2022-08-03T05:57:47.390Z,13.21
2022-08-03T06:00:17.394Z,13.21
2022-08-03T06:02:46.558Z,13.41
2022-08-03T06:05:14.108Z,13.56
2022-08-03T06:07:41.669Z,13.31
2022-08-03T06:10:36.658Z,13.06
2022-08-03T06:12:57.146Z,12.82
2022-08-03T06:15:24.845Z,12.79
2022-08-03T06:17:52.733Z,12.87
2022-08-03T06:20:21.179Z,12.97
2022-08-03T06:22:51.379Z,13.41
2022-08-03T06:25:28.091Z,13.16
2022-08-03T06:27:55.479Z,13.29
2022-08-03T06:30:23.003Z,13.57
2022-08-03T06:32:51.695Z,13.46
2022-08-03T06:35:20.383Z,13.50
2022-08-03T06:37:50.130Z,13.46
2022-08-03T06:40:24.318Z,13.48
2022-08-03T06:42:52.126Z,12.84
2022-08-03T06:45:19.633Z,12.96
2022-08-03T06:47:47.065Z,12.61
2022-08-03T06:50:16.877Z,13.13
2022-08-03T06:52:45.638Z,12.84
2022-08-03T06:55:13.141Z,12.83
2022-08-03T06:57:40.558Z,12.81
2022-08-03T07:00:12.187Z,12.45
2022-08-03T07:02:40.254Z,13.44
2022-08-03T07:05:09.733Z,12.84
2022-08-03T07:07:37.499Z,12.60
2022-08-03T07:10:06.488Z,12.50
2022-08-03T07:12:34.988Z,12.58
2022-08-03T07:15:04.177Z,12.60
2022-08-03T07:17:34.927Z,12.35
2022-08-03T07:20:05.243Z,12.34
2022-08-03T07:22:33.035Z,12.38
2022-08-03T07:25:00.803Z,12.55
2022-08-03T07:27:29.575Z,12.40
2022-08-03T07:30:00.031Z,12.69
2022-08-03T07:32:28.845Z,12.50
2022-08-03T07:35:00.490Z,12.81
2022-08-03T07:37:29.431Z,12.93
2022-08-03T07:39:57.088Z,13.70
2022-08-03T07:42:24.574Z,14.08
2022-08-03T07:44:51.953Z,14.38
2022-08-03T07:47:25.329Z,15.13
2022-08-03T07:50:02.578Z,15.15
2022-08-03T07:52:48.460Z,16.04
2022-08-03T07:55:17.359Z,15.97
2022-08-03T07:57:45.164Z,15.96
2022-08-03T08:00:18.656Z,16.51
2022-08-03T08:02:46.648Z,16.28
2022-08-03T08:05:14.177Z,15.87
2022-08-03T08:07:41.709Z,16.20
2022-08-03T08:10:10.443Z,16.17
2022-08-03T08:12:41.023Z,16.53
2022-08-03T08:15:09.974Z,16.80
2022-08-03T08:17:55.844Z,17.01
2022-08-03T08:20:31.797Z,18.23
2022-08-03T08:23:02.733Z,18.34
2022-08-03T08:25:31.978Z,18.68
2022-08-03T08:28:29.785Z,18.40
2022-08-03T08:30:51.986Z,17.87
2022-08-03T08:33:22.606Z,18.93
2022-08-03T08:35:50.400Z,18.95
2022-08-03T08:38:17.771Z,19.31
2022-08-03T08:40:46.039Z,19.18
2022-08-03T08:43:13.521Z,18.99
2022-08-03T08:45:43.051Z,19.25
2022-08-03T08:48:13.406Z,19.60
2022-08-03T08:50:41.198Z,19.72
2022-08-03T08:53:18.325Z,19.17
2022-08-03T08:55:59.206Z,18.83
2022-08-03T08:58:37.085Z,18.48
2022-08-03T09:01:04.976Z,19.14
2022-08-03T09:03:34.656Z,19.76
2022-08-03T09:06:02.701Z,20.15
2022-08-03T09:08:32.023Z,20.30
2022-08-03T09:10:59.927Z,21.25
2022-08-03T09:13:27.537Z,21.34
2022-08-03T09:16:11.190Z,21.33
2022-08-03T09:18:39.265Z,20.92
2022-08-03T09:21:34.128Z,21.73
2022-08-03T09:24:05.685Z,22.27
2022-08-03T09:26:36.697Z,22.29
2022-08-03T09:29:13.236Z,21.73
2022-08-03T09:31:47.148Z,22.16
2022-08-03T09:34:16.147Z,21.29
2022-08-03T09:36:50.866Z,21.41
2022-08-03T09:39:40.467Z,22.26
2022-08-03T09:42:14.973Z,22.96
2022-08-03T09:44:45.477Z,22.43
2022-08-03T09:47:16.183Z,22.32
2022-08-03T09:49:57.805Z,22.38
2022-08-03T09:52:52.314Z,22.66
2022-08-03T09:56:34.480Z,23.91
2022-08-03T09:58:14.585Z,24.01
2022-08-03T10:01:04.448Z,23.50
2022-08-03T10:04:02.703Z,23.78
2022-08-03T10:06:28.952Z,23.20
2022-08-03T10:09:11.638Z,23.42
2022-08-03T10:11:42.028Z,23.79
2022-08-03T10:14:19.493Z,24.21
2022-08-03T10:16:48.815Z,24.43
2022-08-03T10:19:17.005Z,24.47
2022-08-03T10:21:50.872Z,24.69
2022-08-03T10:24:24.898Z,24.77
2022-08-03T10:26:54.320Z,24.54
2022-08-03T10:29:25.478Z,24.84
2022-08-03T10:31:58.432Z,24.96
2022-08-03T10:34:35.415Z,25.67
2022-08-03T10:37:08.683Z,26.43
2022-08-03T10:39:37.039Z,26.42
2022-08-03T10:42:06.098Z,26.74
2022-08-03T10:44:42.994Z,26.81
2022-08-03T10:47:11.597Z,26.49
2022-08-03T10:49:39.697Z,26.55
2022-08-03T10:52:13.114Z,26.39
2022-08-03T10:55:03.244Z,26.31
2022-08-03T10:57:58.496Z,26.18
2022-08-03T11:00:30.495Z,25.78
2022-08-03T11:03:14.396Z,25.32
2022-08-03T11:05:47.296Z,25.80
2022-08-03T11:08:37.094Z,26.23
2022-08-03T11:11:20.292Z,26.30
2022-08-03T11:14:05.721Z,26.08
2022-08-03T11:16:39.105Z,26.14
2022-08-03T11:19:11.210Z,26.70
2022-08-03T11:21:51.317Z,26.65
2022-08-03T11:24:37.092Z,26.68
2022-08-03T11:27:19.957Z,27.12
2022-08-03T11:30:07.454Z,27.11
2022-08-03T11:32:38.346Z,27.17
2022-08-03T11:35:26.238Z,26.71
2022-08-03T11:38:04.396Z,27.38
2022-08-03T11:40:48.840Z,27.67
2022-08-03T11:43:22.538Z,27.35
2022-08-03T11:46:03.346Z,27.17
2022-08-03T11:48:46.291Z,27.44
2022-08-03T11:51:25.678Z,27.32
2022-08-03T11:53:58.250Z,27.67
2022-08-03T11:56:26.250Z,27.68
2022-08-03T11:59:15.277Z,28.06
2022-08-03T12:01:46.291Z,28.07
2022-08-03T12:04:13.759Z,28.33
2022-08-03T12:06:56.323Z,28.34
2022-08-03T12:09:23.713Z,28.60
2022-08-03T12:11:59.383Z,28.37
2022-08-03T12:14:49.049Z,28.29
2022-08-03T12:17:17.704Z,28.57
2022-08-03T12:19:45.515Z,28.59
2022-08-03T12:22:13.813Z,28.96
2022-08-03T12:24:46.782Z,29.04
2022-08-03T12:27:25.017Z,29.04
2022-08-03T12:29:58.582Z,29.34
2022-08-03T12:32:28.594Z,30.10
2022-08-03T12:35:02.043Z,30.52
2022-08-03T12:37:32.275Z,30.06
2022-08-03T12:40:09.357Z,29.94
2022-08-03T12:42:40.179Z,30.26
2022-08-03T12:45:21.285Z,30.10
2022-08-03T12:47:56.163Z,29.70
2022-08-03T12:50:31.454Z,29.52
2022-08-03T12:53:01.215Z,29.68
2022-08-03T12:55:56.645Z,29.65
2022-08-03T12:58:43.720Z,29.50
2022-08-03T13:01:13.900Z,29.73
2022-08-03T13:03:50.361Z,29.69
2022-08-03T13:06:25.463Z,29.96
2022-08-03T13:09:04.805Z,29.66
2022-08-03T13:11:57.982Z,29.58
2022-08-03T13:14:20.632Z,29.72
2022-08-03T13:16:49.667Z,30.07
2022-08-03T13:19:21.145Z,30.46
2022-08-03T13:21:53.440Z,30.04
2022-08-03T13:24:32.305Z,30.25
2022-08-03T13:27:00.989Z,30.16
2022-08-03T13:29:48.430Z,30.07
2022-08-03T13:32:15.958Z,30.18
2022-08-03T13:34:43.496Z,29.89
2022-08-03T13:37:12.428Z,30.10
2022-08-03T13:39:58.055Z,29.98
2022-08-03T13:42:35.467Z,30.26
2022-08-03T13:45:04.338Z,30.10
2022-08-03T13:47:34.372Z,30.06
2022-08-03T13:50:03.068Z,30.19
2022-08-03T13:52:36.801Z,30.59
2022-08-03T13:55:06.352Z,30.82
2022-08-03T13:58:05.826Z,30.64
2022-08-03T14:00:28.585Z,31.13
2022-08-03T14:03:12.588Z,31.04
2022-08-03T14:05:42.209Z,31.50
2022-08-03T14:08:10.252Z,31.95
2022-08-03T14:10:40.488Z,31.70
2022-08-03T14:13:08.804Z,31.53
2022-08-03T14:15:37.294Z,31.58
2022-08-03T14:18:15.850Z,32.20
2022-08-03T14:20:56.346Z,31.83
2022-08-03T14:23:25.246Z,32.36
2022-08-03T14:25:53.157Z,32.50
2022-08-03T14:28:24.712Z,32.68
2022-08-03T14:30:53.297Z,32.52
2022-08-03T14:33:21.174Z,32.51
2022-08-03T14:35:49.164Z,32.44
2022-08-03T14:38:17.441Z,32.81
2022-08-03T14:40:45.132Z,32.56
2022-08-03T14:43:12.839Z,32.86
2022-08-03T14:45:40.872Z,33.01
2022-08-03T14:50:12.592Z,32.73
2022-08-03T14:50:57.880Z,33.06
2022-08-03T14:53:25.366Z,33.15
2022-08-03T14:55:53.683Z,33.26
2022-08-03T14:58:22.806Z,33.92
2022-08-03T15:00:51.977Z,33.57
2022-08-03T15:03:24.003Z,33.52
2022-08-03T15:05:56.416Z,33.97
2022-08-03T15:08:25.311Z,33.63
2022-08-03T15:10:54.497Z,34.02
2022-08-03T15:13:22.474Z,34.03
2022-08-03T15:15:50.232Z,34.02
2022-08-03T15:18:17.794Z,34.29
2022-08-03T15:20:46.690Z,34.60
2022-08-03T15:23:16.291Z,34.54
2022-08-03T15:26:29.454Z,34.50
2022-08-03T15:28:32.797Z,34.58
2022-08-03T15:31:01.370Z,34.80
2022-08-03T15:33:29.763Z,34.65
2022-08-03T15:35:57.518Z,34.80
2022-08-03T15:38:26.232Z,35.25
2022-08-03T15:40:55.590Z,35.23
2022-08-03T15:43:24.146Z,35.36
2022-08-03T15:46:12.803Z,35.76
2022-08-03T15:48:40.753Z,35.78
2022-08-03T15:51:09.259Z,36.15
2022-08-03T15:53:37.764Z,36.21
2022-08-03T15:56:11.318Z,36.58
2022-08-03T15:59:09.483Z,36.78
2022-08-03T16:01:30.077Z,37.08
2022-08-03T16:03:57.695Z,37.00
2022-08-03T16:06:34.660Z,37.13
2022-08-03T16:09:23.899Z,37.91
2022-08-03T16:11:56.251Z,37.49
2022-08-03T16:14:32.281Z,37.78
2022-08-03T16:17:04.277Z,37.94
2022-08-03T16:19:31.794Z,38.02
2022-08-03T16:21:59.356Z,38.12
2022-08-03T16:24:28.618Z,38.01
2022-08-03T16:26:57.050Z,38.60
2022-08-03T16:29:24.506Z,38.54
2022-08-03T16:31:52.692Z,38.57
2022-08-03T16:34:20.679Z,38.54
2022-08-03T16:36:48.250Z,38.90
2022-08-03T16:39:15.959Z,38.81
2022-08-03T16:41:54.029Z,39.21
2022-08-03T16:44:30.909Z,39.88
2022-08-03T16:46:59.721Z,39.89
2022-08-03T16:49:54.658Z,40.32
2022-08-03T16:52:16.757Z,40.37
2022-08-03T16:54:52.735Z,40.97
2022-08-03T16:57:55.680Z,41.35
2022-08-03T17:00:34.283Z,41.46
2022-08-03T17:03:04.365Z,41.27
2022-08-03T17:05:46.971Z,41.65
2022-08-03T17:08:16.384Z,41.72
2022-08-03T17:10:53.982Z,41.58
2022-08-03T17:13:22.880Z,42.57
2022-08-03T17:16:01.326Z,42.80
2022-08-03T17:18:35.649Z,43.69
2022-08-03T17:21:07.999Z,43.32
2022-08-03T17:23:57.625Z,43.04
2022-08-03T17:26:30.595Z,43.71
2022-08-03T17:29:12.932Z,44.00
2022-08-03T17:31:48.944Z,43.24
2022-08-03T17:34:18.720Z,42.95
2022-08-03T17:37:04.096Z,43.14
2022-08-03T17:39:57.738Z,43.42
2022-08-03T17:42:30.324Z,43.53
2022-08-03T17:45:02.119Z,43.76
2022-08-03T17:47:42.133Z,43.90
2022-08-03T17:50:24.539Z,44.54
2022-08-03T17:53:06.854Z,45.00
2022-08-03T17:55:55.232Z,45.49
2022-08-03T17:58:55.193Z,45.92
2022-08-03T18:02:00.769Z,45.39
2022-08-03T18:04:41.302Z,45.40
2022-08-03T18:07:12.625Z,45.72
2022-08-03T18:10:03.699Z,45.01
2022-08-03T18:12:51.890Z,45.25
2022-08-03T18:15:30.441Z,46.94
2022-08-03T18:18:10.377Z,46.22
2022-08-03T18:20:42.008Z,45.96
2022-08-03T18:23:20.651Z,47.60
2022-08-03T18:26:05.637Z,47.27
2022-08-03T18:28:35.862Z,47.77
2022-08-03T18:31:05.993Z,47.90
2022-08-03T18:34:20.037Z,48.99
2022-08-03T18:36:30.127Z,49.14
2022-08-03T18:39:02.990Z,50.17
2022-08-03T18:41:34.624Z,51.20
2022-08-03T18:44:37.243Z,51.54
2022-08-03T18:47:50.726Z,50.84
2022-08-03T18:50:30.576Z,51.03
2022-08-03T18:53:03.072Z,52.04
2022-08-03T18:55:33.751Z,51.16
2022-08-03T19:01:57.996Z,52.16
2022-08-03T19:04:25.300Z,52.64
2022-08-03T19:07:02.848Z,52.48
2022-08-03T19:09:49.580Z,53.41
2022-08-03T19:12:30.602Z,53.86
2022-08-03T19:15:05.942Z,54.43
2022-08-03T19:17:53.626Z,54.61
2022-08-03T19:20:25.060Z,53.87
2022-08-03T19:22:54.739Z,54.42
2022-08-03T19:25:34.534Z,54.61
2022-08-03T19:28:07.353Z,55.14
2022-08-03T19:33:29.941Z,53.88
2022-08-03T19:35:58.358Z,55.44
2022-08-03T19:41:18.023Z,56.16
2022-08-03T19:44:02.098Z,57.05
2022-08-03T19:46:37.833Z,56.23
2022-08-03T19:49:14.596Z,56.92
2022-08-03T19:51:59.041Z,56.35
2022-08-03T19:54:52.768Z,56.95
2022-08-03T19:57:25.006Z,56.96
2022-08-03T19:59:54.402Z,56.98
2022-08-03T20:02:27.125Z,56.98
2022-08-03T20:04:59.579Z,57.33
2022-08-03T20:07:48.437Z,57.26
2022-08-03T20:10:18.131Z,56.89
2022-08-03T20:12:47.581Z,57.34
2022-08-03T20:15:18.111Z,57.23
2022-08-03T20:17:54.882Z,56.79
2022-08-03T20:20:29.454Z,58.11
2022-08-03T20:22:59.513Z,57.72
2022-08-03T20:25:38.089Z,57.76
2022-08-03T20:28:15.073Z,58.23
2022-08-03T20:30:47.187Z,57.92
2022-08-03T20:33:18.818Z,57.62
2022-08-03T20:35:49.679Z,57.09
2022-08-03T20:38:20.379Z,57.68
2022-08-03T20:40:55.021Z,57.02
2022-08-03T20:43:26.764Z,57.25
2022-08-03T20:46:00.077Z,57.42
2022-08-03T20:48:43.475Z,57.37
2022-08-03T20:51:20.151Z,58.20
2022-08-03T20:54:09.659Z,57.86
2022-08-03T20:56:53.726Z,58.26
2022-08-03T20:59:21.686Z,57.85
2022-08-03T21:01:49.185Z,57.94
2022-08-03T21:04:20.947Z,57.61
2022-08-03T21:06:57.438Z,58.57
2022-08-03T21:09:33.478Z,58.04
2022-08-03T21:12:13.165Z,57.38
2022-08-03T21:13:02.596Z,56.77
2022-08-03T21:13:10.126Z,51.04
2022-08-03T21:13:10.907Z,55.28
2022-08-03T21:14:52.540Z,57.56
2022-08-03T21:17:39.216Z,58.35
2022-08-03T21:20:12.421Z,58.09
2022-08-03T21:22:44.087Z,59.35
2022-08-03T21:25:15.034Z,58.89
2022-08-03T21:27:42.551Z,58.16
2022-08-03T21:30:11.446Z,58.53
2022-08-03T21:32:40.681Z,58.26
2022-08-03T21:35:12.943Z,59.83
2022-08-03T21:37:41.885Z,58.77
2022-08-03T21:40:12.482Z,59.66
2022-08-03T21:42:41.703Z,58.79
2022-08-03T21:45:16.875Z,59.69
2022-08-03T21:47:46.046Z,58.98
2022-08-03T21:50:13.967Z,59.23
2022-08-03T21:52:45.308Z,60.33
2022-08-03T21:55:20.332Z,59.79
2022-08-03T21:57:53.316Z,61.32
2022-08-03T22:00:23.411Z,60.73
2022-08-03T22:02:57.166Z,62.49
2022-08-03T22:05:28.874Z,61.82
2022-08-03T22:08:13.112Z,61.52
2022-08-03T22:10:43.438Z,61.52
2022-08-03T22:13:13.283Z,61.95
2022-08-03T22:15:41.263Z,60.85
2022-08-03T22:18:09.599Z,61.18
2022-08-03T22:20:37.260Z,61.08
2022-08-03T22:23:06.850Z,61.67
2022-08-03T22:25:39.110Z,61.80
2022-08-03T22:28:10.309Z,62.01
2022-08-03T22:30:39.302Z,61.37
2022-08-03T22:33:11.208Z,62.11
2022-08-03T22:35:47.953Z,61.75
2022-08-03T22:38:18.311Z,61.42
2022-08-03T22:40:49.094Z,62.24
2022-08-03T22:43:17.290Z,60.85
2022-08-03T22:46:10.138Z,61.70
2022-08-03T22:48:41.029Z,60.72
2022-08-03T22:51:09.735Z,60.91
2022-08-03T22:53:38.745Z,60.57
2022-08-03T22:56:07.085Z,61.44
2022-08-03T22:58:34.551Z,60.17
2022-08-03T23:01:08.723Z,63.36
2022-08-03T23:04:01.221Z,62.87
2022-08-03T23:06:35.980Z,63.27
2022-08-03T23:09:10.098Z,63.26
2022-08-03T23:11:46.153Z,62.87
2022-08-03T23:14:16.888Z,61.01
2022-08-03T23:16:46.136Z,61.06
2022-08-03T23:19:17.149Z,60.43
2022-08-03T23:22:02.827Z,61.96
2022-08-03T23:24:35.990Z,61.49
2022-08-03T23:27:05.765Z,60.99
2022-08-03T23:29:38.769Z,62.38
2022-08-03T23:32:07.256Z,60.54
2022-08-03T23:34:53.492Z,60.54
2022-08-03T23:37:21.268Z,59.82
2022-08-03T23:39:49.351Z,60.06
2022-08-03T23:42:19.521Z,60.82
2022-08-03T23:44:47.388Z,60.35
2022-08-03T23:47:15.539Z,60.32
2022-08-03T23:49:43.191Z,60.46
2022-08-03T23:52:21.822Z,62.77
2022-08-03T23:55:15.156Z,62.85
2022-08-03T23:58:01.751Z,61.74
